Time;durP1;ratioP1;P1;durP2;ratioP2;P2;SDS_P1;SDS_P2;PMS_P1;PMS_P2;Temp;Humidity;BMP_temperature;BMP_pressure;BME280_temperature;BME280_humidity;BME280_pressure;Samples;Min_cycle;Max_cycle;Signal;HPM_P1;HPM_P2
2021/09/02 00:00:26;;;;;;;11.32;6.97;;;12.70;94.80;;;;;;5016318;28;20054;-82
2021/09/02 00:02:52;;;;;;;7.13;5.70;;;12.70;94.70;;;;;;5017893;28;20025;-81
2021/09/02 00:05:18;;;;;;;7.75;6.38;;;12.70;94.60;;;;;;5028558;28;20045;-80
2021/09/02 00:07:43;;;;;;;9.63;6.28;;;12.70;93.90;;;;;;5016270;28;20018;-83
2021/09/02 00:10:10;;;;;;;7.85;5.57;;;12.70;93.70;;;;;;5014486;28;20024;-81
2021/09/02 00:12:36;;;;;;;8.68;6.32;;;12.60;93.70;;;;;;5014192;28;20053;-82
2021/09/02 00:15:02;;;;;;;7.95;6.20;;;12.60;93.70;;;;;;5014757;28;20104;-81
2021/09/02 00:17:28;;;;;;;9.77;6.00;;;12.60;93.80;;;;;;5014585;28;20022;-81
2021/09/02 00:19:54;;;;;;;12.90;6.82;;;12.60;93.80;;;;;;5013303;28;20041;-79
2021/09/02 00:22:20;;;;;;;11.98;6.72;;;12.60;93.70;;;;;;5013347;28;20379;-80
2021/09/02 00:24:45;;;;;;;7.68;6.28;;;12.60;93.60;;;;;;5011413;28;20554;-81
2021/09/02 00:27:11;;;;;;;6.60;5.15;;;12.60;93.50;;;;;;5005492;28;20024;-81
2021/09/02 00:29:37;;;;;;;7.55;5.70;;;12.60;93.30;;;;;;5013359;28;20022;-80
2021/09/02 00:32:03;;;;;;;7.47;6.10;;;12.60;93.40;;;;;;5013114;28;20494;-80
2021/09/02 00:34:29;;;;;;;8.45;5.97;;;12.60;93.40;;;;;;5010160;28;20392;-81
2021/09/02 00:36:55;;;;;;;9.05;6.28;;;12.60;93.30;;;;;;5010625;28;20026;-80
2021/09/02 00:39:21;;;;;;;10.90;6.72;;;12.70;93.40;;;;;;5010905;28;20022;-80
2021/09/02 00:41:46;;;;;;;7.45;5.53;;;12.70;93.00;;;;;;5008514;28;20100;-82
2021/09/02 00:44:34;;;;;;;8.65;5.72;;;12.70;93.00;;;;;;5011467;28;20046;-82
2021/09/02 00:47:03;;;;;;;8.05;5.38;;;12.80;92.90;;;;;;5012899;28;20036;-80
2021/09/02 00:49:29;;;;;;;7.32;5.55;;;12.80;92.80;;;;;;5011726;28;20022;-80
2021/09/02 00:51:58;;;;;;;7.82;5.20;;;12.90;92.80;;;;;;5011537;28;20391;-82
2021/09/02 00:54:25;;;;;;;9.98;6.20;;;12.90;92.60;;;;;;5010937;28;20018;-80
2021/09/02 00:56:50;;;;;;;8.30;6.07;;;12.90;92.60;;;;;;5012020;28;20026;-81
2021/09/02 00:59:16;;;;;;;7.13;5.95;;;13.00;92.50;;;;;;5012242;28;20018;-81
2021/09/02 01:01:42;;;;;;;8.13;5.80;;;13.00;92.20;;;;;;5012103;28;20467;-81
2021/09/02 01:04:08;;;;;;;10.07;5.43;;;13.10;92.10;;;;;;5011683;28;20495;-80
2021/09/02 01:06:35;;;;;;;7.88;5.85;;;13.10;92.10;;;;;;5012281;28;20045;-79
2021/09/02 01:09:01;;;;;;;10.70;6.38;;;13.00;92.20;;;;;;5012779;28;20084;-80
2021/09/02 01:11:27;;;;;;;12.77;6.10;;;13.00;92.40;;;;;;5007035;28;20048;-80
2021/09/02 01:13:52;;;;;;;8.27;5.70;;;12.90;92.40;;;;;;5012667;28;20440;-81
2021/09/02 01:16:18;;;;;;;10.52;6.03;;;12.90;92.60;;;;;;5012382;28;20030;-81
2021/09/02 01:18:44;;;;;;;12.07;6.22;;;12.90;92.70;;;;;;5012553;28;20025;-79
2021/09/02 01:21:10;;;;;;;11.07;5.60;;;12.90;92.80;;;;;;5008450;28;20068;-80
2021/09/02 01:23:39;;;;;;;8.18;5.93;;;12.90;92.90;;;;;;5010602;28;20026;-80
2021/09/02 01:26:19;;;;;;;7.60;5.82;;;12.90;92.90;;;;;;5012322;28;20065;-79
2021/09/02 01:28:45;;;;;;;8.23;5.95;;;12.90;92.90;;;;;;5012417;28;20105;-80
2021/09/02 01:31:17;;;;;;;8.27;6.15;;;12.90;92.80;;;;;;5012767;28;20022;-79
2021/09/02 01:33:45;;;;;;;9.43;5.63;;;12.90;92.90;;;;;;5012635;28;20026;-80
2021/09/02 01:36:12;;;;;;;7.22;6.47;;;12.90;92.90;;;;;;5012457;28;20021;-80
2021/09/02 01:38:38;;;;;;;8.85;6.47;;;12.90;92.80;;;;;;5010996;28;20025;-80
2021/09/02 01:41:04;;;;;;;11.13;7.85;;;12.90;92.90;;;;;;5010208;28;20022;-81
2021/09/02 01:43:30;;;;;;;10.18;7.03;;;12.90;93.00;;;;;;5011292;28;20079;-81
2021/09/02 01:45:56;;;;;;;6.93;6.05;;;12.90;93.10;;;;;;5011630;28;20046;-79
2021/09/02 01:48:22;;;;;;;9.98;6.05;;;13.00;93.00;;;;;;5012310;28;20025;-81
2021/09/02 01:50:48;;;;;;;8.10;5.82;;;13.00;92.70;;;;;;5012744;28;20022;-79
2021/09/02 01:53:18;;;;;;;9.00;6.30;;;13.00;92.40;;;;;;5012533;28;20018;-81
2021/09/02 01:55:45;;;;;;;10.77;7.20;;;13.00;92.40;;;;;;5010582;28;20064;-80
2021/09/02 01:58:11;;;;;;;;;;;13.00;92.50;;;;;;5012524;28;20109;-79
2021/09/02 02:00:37;;;;;;;9.70;6.80;;;13.00;92.50;;;;;;5012012;28;20008;-80
2021/09/02 02:03:04;;;;;;;11.40;6.68;;;13.00;92.70;;;;;;5011921;28;20032;-79
2021/09/02 02:05:30;;;;;;;13.47;7.57;;;12.90;92.80;;;;;;4997151;28;20484;-80
2021/09/02 02:07:57;;;;;;;9.85;7.45;;;12.90;92.80;;;;;;5012030;28;20743;-80
2021/09/02 02:10:27;;;;;;;10.90;7.30;;;12.90;92.80;;;;;;5022723;28;20053;-80
2021/09/02 02:12:55;;;;;;;11.52;7.32;;;12.80;93.10;;;;;;5024157;28;20083;-80
2021/09/02 02:15:21;;;;;;;8.48;6.80;;;12.90;92.90;;;;;;5014926;28;20018;-81
2021/09/02 02:17:47;;;;;;;8.70;6.57;;;12.90;92.90;;;;;;5015813;28;20368;-79
2021/09/02 02:20:13;;;;;;;11.65;7.47;;;12.90;92.80;;;;;;5008306;28;20021;-79
2021/09/02 02:22:40;;;;;;;8.98;6.97;;;12.80;92.70;;;;;;5010579;28;20033;-80
2021/09/02 02:25:07;;;;;;;9.98;6.85;;;12.80;92.60;;;;;;5016227;28;20053;-80
2021/09/02 02:27:33;;;;;;;11.65;6.70;;;12.80;92.60;;;;;;5018312;28;20033;-81
2021/09/02 02:29:59;;;;;;;7.47;5.47;;;12.80;92.70;;;;;;5020527;28;20021;-82
2021/09/02 02:32:25;;;;;;;8.68;6.68;;;12.80;92.70;;;;;;5017182;28;20491;-81
2021/09/02 02:34:50;;;;;;;12.18;7.07;;;12.80;92.70;;;;;;5014421;28;20022;-80
2021/09/02 02:37:17;;;;;;;10.98;6.60;;;12.80;92.80;;;;;;5014383;28;20502;-80
2021/09/02 02:39:43;;;;;;;12.23;7.75;;;12.80;92.80;;;;;;5015520;28;20113;-82
2021/09/02 02:42:09;;;;;;;7.65;6.45;;;12.80;92.70;;;;;;5014435;28;20021;-83
2021/09/02 02:44:37;;;;;;;8.25;6.63;;;12.80;92.80;;;;;;5015083;28;20437;-81
2021/09/02 02:47:03;;;;;;;;;;;12.80;92.80;;;;;;5016301;28;20022;-81
2021/09/02 02:49:29;;;;;;;9.90;6.30;;;12.70;92.70;;;;;;5015301;28;19909;-81
2021/09/02 02:51:55;;;;;;;7.63;5.90;;;12.70;92.80;;;;;;5015147;28;20018;-81
2021/09/02 02:54:21;;;;;;;11.77;6.22;;;12.70;92.90;;;;;;5015438;28;20025;-81
2021/09/02 02:56:47;;;;;;;11.20;7.13;;;12.70;92.80;;;;;;5013809;28;20021;-82
2021/09/02 02:59:13;;;;;;;12.05;6.70;;;12.70;92.90;;;;;;5015888;28;20068;-81
2021/09/02 03:01:39;;;;;;;11.38;8.07;;;12.80;92.90;;;;;;5015233;28;20037;-83
2021/09/02 03:04:05;;;;;;;10.82;6.82;;;12.80;92.90;;;;;;5013781;28;20051;-80
2021/09/02 03:06:31;;;;;;;8.80;6.63;;;12.80;92.70;;;;;;5015126;28;20040;-81
2021/09/02 03:08:59;;;;;;;8.75;6.35;;;12.80;92.70;;;;;;5014936;28;20117;-81
2021/09/02 03:11:25;;;;;;;8.40;6.05;;;12.80;92.50;;;;;;5015116;28;20018;-81
2021/09/02 03:13:52;;;;;;;8.82;6.47;;;12.80;92.50;;;;;;5014715;28;20053;-81
2021/09/02 03:16:18;;;;;;;12.45;6.18;;;12.80;92.50;;;;;;5013864;28;20033;-81
2021/09/02 03:18:44;;;;;;;10.30;6.25;;;12.80;92.40;;;;;;5008554;28;20030;-81
2021/09/02 03:21:10;;;;;;;8.82;5.88;;;12.80;92.30;;;;;;5015053;28;20030;-80
2021/09/02 03:23:36;;;;;;;10.10;6.30;;;12.80;92.40;;;;;;5015533;28;20022;-81
2021/09/02 03:26:01;;;;;;;10.07;6.35;;;12.80;92.20;;;;;;5012119;28;20492;-81
2021/09/02 03:28:27;;;;;;;9.45;5.97;;;12.80;92.10;;;;;;5013671;28;20848;-80
2021/09/02 03:30:53;;;;;;;8.38;5.30;;;12.90;92.10;;;;;;5014153;28;20443;-80
2021/09/02 03:33:19;;;;;;;9.70;5.70;;;12.80;91.90;;;;;;5014557;28;20025;-81
2021/09/02 03:35:45;;;;;;;6.00;4.70;;;12.90;91.90;;;;;;5014168;28;20033;-81
2021/09/02 03:38:10;;;;;;;8.00;5.38;;;12.90;91.60;;;;;;5015505;28;20014;-80
2021/09/02 03:40:37;;;;;;;9.20;5.00;;;13.00;91.30;;;;;;5013112;28;20034;-82
2021/09/02 03:43:03;;;;;;;6.82;4.50;;;13.00;91.10;;;;;;5013943;28;20106;-82
2021/09/02 03:45:29;;;;;;;7.20;4.93;;;13.00;90.80;;;;;;5014916;28;20049;-82
2021/09/02 03:47:54;;;;;;;9.95;5.45;;;13.00;90.70;;;;;;5013655;28;20029;-85
2021/09/02 03:50:24;;;;;;;6.10;4.85;;;13.10;90.60;;;;;;5014291;28;20022;-82
2021/09/02 03:52:52;;;;;;;7.65;4.68;;;13.10;90.60;;;;;;5015928;28;20022;-82
2021/09/02 03:55:18;;;;;;;12.85;5.10;;;13.10;90.60;;;;;;5014288;28;20172;-81
2021/09/02 03:57:44;;;;;;;8.05;5.07;;;13.10;90.40;;;;;;5012997;28;20112;-84
2021/09/02 04:00:12;;;;;;;8.38;5.20;;;13.00;90.30;;;;;;5014016;28;20036;-83
2021/09/02 04:02:39;;;;;;;6.25;4.63;;;13.00;90.50;;;;;;5013086;28;20434;-83
2021/09/02 04:05:08;;;;;;;6.90;4.68;;;13.00;90.50;;;;;;5014255;28;20068;-83
2021/09/02 04:07:34;;;;;;;7.22;5.47;;;12.90;90.70;;;;;;5014828;28;20065;-83
2021/09/02 04:10:00;;;;;;;6.25;4.82;;;13.00;90.60;;;;;;5013942;28;20491;-83
2021/09/02 04:12:26;;;;;;;6.65;5.40;;;13.10;90.70;;;;;;5013193;28;20057;-81
2021/09/02 04:14:52;;;;;;;9.35;5.28;;;13.10;90.70;;;;;;5014703;28;20113;-83
2021/09/02 04:17:19;;;;;;;9.60;5.97;;;13.10;90.70;;;;;;5014418;28;20054;-80
2021/09/02 04:19:47;;;;;;;12.98;6.60;;;13.10;90.80;;;;;;5022847;28;20030;-83
2021/09/02 04:22:13;;;;;;;8.98;5.00;;;13.20;90.80;;;;;;5014354;28;20064;-82
2021/09/02 04:24:39;;;;;;;9.10;6.32;;;13.20;90.80;;;;;;5013905;28;20076;-81
2021/09/02 04:27:05;;;;;;;9.02;5.97;;;13.20;90.60;;;;;;5014239;28;20034;-82
2021/09/02 04:29:31;;;;;;;6.32;5.00;;;13.20;90.60;;;;;;5013634;28;20033;-81
2021/09/02 04:31:57;;;;;;;7.40;5.47;;;13.20;90.50;;;;;;5014011;28;20022;-82
2021/09/02 04:34:22;;;;;;;7.80;5.03;;;13.20;90.60;;;;;;5012242;28;20063;-83
2021/09/02 04:36:48;;;;;;;5.82;4.70;;;13.20;90.40;;;;;;5012163;28;20080;-82
2021/09/02 04:39:14;;;;;;;11.55;5.13;;;13.20;90.30;;;;;;5011882;28;20037;-83
2021/09/02 04:41:40;;;;;;;8.13;5.25;;;13.20;90.30;;;;;;5012156;28;20101;-82
2021/09/02 04:44:06;;;;;;;6.03;4.88;;;13.30;90.30;;;;;;5013320;28;20081;-83
2021/09/02 04:46:33;;;;;;;8.85;4.65;;;13.40;90.00;;;;;;5013152;28;20466;-83
2021/09/02 04:48:59;;;;;;;6.50;4.70;;;13.40;89.90;;;;;;5011687;28;20073;-85
2021/09/02 04:51:25;;;;;;;4.65;4.00;;;13.40;89.50;;;;;;5013111;28;20034;-85
2021/09/02 04:53:50;;;;;;;9.98;4.38;;;13.50;89.50;;;;;;5011761;28;20014;-85
2021/09/02 04:56:16;;;;;;;8.10;4.97;;;13.60;89.10;;;;;;5013620;28;20033;-84
2021/09/02 04:58:42;;;;;;;8.38;4.70;;;13.60;88.70;;;;;;5011757;28;20050;-84
2021/09/02 05:01:08;;;;;;;7.47;4.55;;;13.70;88.60;;;;;;5011901;28;20030;-83
2021/09/02 05:03:33;;;;;;;7.45;4.78;;;13.70;88.10;;;;;;5013187;28;20117;-83
2021/09/02 05:05:59;;;;;;;6.60;5.15;;;13.60;88.20;;;;;;5013548;28;20038;-83
2021/09/02 05:08:25;;;;;;;11.32;5.43;;;13.60;88.60;;;;;;5012943;28;20533;-82
2021/09/02 05:10:51;;;;;;;9.60;5.28;;;13.70;88.70;;;;;;5012897;28;20021;-83
2021/09/02 05:13:17;;;;;;;7.38;5.45;;;13.80;88.50;;;;;;5013036;28;20022;-84
2021/09/02 05:15:43;;;;;;;7.75;5.22;;;13.80;88.20;;;;;;5011089;28;20372;-83
2021/09/02 05:18:09;;;;;;;9.32;5.53;;;13.90;87.90;;;;;;5013578;28;20069;-82
2021/09/02 05:20:35;;;;;;;11.77;5.07;;;13.90;87.70;;;;;;5017794;28;20037;-81
2021/09/02 05:23:01;;;;;;;8.07;5.00;;;13.90;87.50;;;;;;5021975;28;20026;-83
2021/09/02 05:25:27;;;;;;;7.20;4.82;;;13.90;87.10;;;;;;5011973;28;20041;-82
2021/09/02 05:27:53;;;;;;;8.88;5.03;;;14.00;87.00;;;;;;5012574;28;20025;-83
2021/09/02 05:30:19;;;;;;;8.48;5.57;;;14.00;86.90;;;;;;5011836;28;20029;-83
2021/09/02 05:32:45;;;;;;;6.88;5.30;;;14.10;86.80;;;;;;5014266;28;20448;-83
2021/09/02 05:35:12;;;;;;;7.90;5.20;;;14.10;86.70;;;;;;5013999;28;20033;-83
2021/09/02 05:37:38;;;;;;;10.30;5.32;;;14.10;86.60;;;;;;5011322;28;20053;-85
2021/09/02 05:40:06;;;;;;;10.93;6.32;;;14.30;86.40;;;;;;5011349;28;20034;-83
2021/09/02 05:42:33;;;;;;;10.02;5.28;;;14.30;86.00;;;;;;5012488;28;20026;-82
2021/09/02 05:45:00;;;;;;;10.80;5.47;;;14.40;85.80;;;;;;5012298;28;20049;-83
2021/09/02 05:47:26;;;;;;;9.32;5.45;;;14.50;85.10;;;;;;5011014;28;20030;-83
2021/09/02 05:49:51;;;;;;;6.70;4.78;;;14.60;84.50;;;;;;5015389;28;20095;-82
2021/09/02 05:52:17;;;;;;;6.75;5.30;;;14.60;83.90;;;;;;5005176;28;20479;-85
2021/09/02 05:54:43;;;;;;;7.18;5.40;;;14.60;83.90;;;;;;5014989;28;20072;-85
2021/09/02 05:57:09;;;;;;;11.35;5.43;;;14.60;84.00;;;;;;5015028;28;20103;-83
2021/09/02 05:59:35;;;;;;;8.43;5.78;;;14.60;84.80;;;;;;5015045;28;20057;-84
2021/09/02 06:02:01;;;;;;;7.82;5.18;;;14.60;83.90;;;;;;5015919;28;20395;-84
2021/09/02 06:04:27;;;;;;;9.00;5.20;;;14.70;83.60;;;;;;5014733;28;20018;-83
2021/09/02 06:06:53;;;;;;;9.57;5.90;;;14.60;83.30;;;;;;5016073;28;20436;-83
2021/09/02 06:09:18;;;;;;;8.63;6.15;;;14.50;83.60;;;;;;5015118;28;20124;-83
2021/09/02 06:11:44;;;;;;;9.82;5.15;;;14.40;83.90;;;;;;5016386;28;20105;-85
2021/09/02 06:14:10;;;;;;;13.93;5.35;;;14.40;84.30;;;;;;5014751;28;20474;-82
2021/09/02 06:16:36;;;;;;;6.40;5.28;;;14.50;84.10;;;;;;5016262;28;20057;-83
2021/09/02 06:19:02;;;;;;;7.20;5.70;;;14.70;84.20;;;;;;5015827;28;20025;-83
2021/09/02 06:21:28;;;;;;;9.02;6.05;;;14.80;83.20;;;;;;5020179;28;20063;-83
2021/09/02 06:23:54;;;;;;;9.45;4.97;;;15.00;82.70;;;;;;5028617;28;20029;-86
2021/09/02 06:26:20;;;;;;;9.13;4.45;;;15.10;82.50;;;;;;5016866;28;20578;-89
2021/09/02 06:28:45;;;;;;;7.45;4.22;;;15.20;82.00;;;;;;5018003;28;20049;-85
2021/09/02 06:31:11;;;;;;;7.68;3.97;;;15.40;79.40;;;;;;5015232;28;20025;-85
2021/09/02 06:33:39;;;;;;;5.25;3.47;;;15.50;78.20;;;;;;5006643;28;20032;-82
2021/09/02 06:36:04;;;;;;;5.93;4.03;;;15.60;77.80;;;;;;5015250;28;20022;-81
2021/09/02 06:38:30;;;;;;;8.57;4.45;;;16.00;76.60;;;;;;5015533;28;20506;-83
2021/09/02 06:40:56;;;;;;;5.78;3.78;;;16.40;75.20;;;;;;5016281;28;20032;-85
2021/09/02 06:43:22;;;;;;;8.50;3.97;;;16.70;72.80;;;;;;5018188;28;20408;-82
2021/09/02 06:45:48;;;;;;;8.63;4.57;;;16.70;72.20;;;;;;5017156;28;20554;-83
2021/09/02 06:48:14;;;;;;;5.93;4.03;;;16.70;72.20;;;;;;5015442;28;20049;-83
2021/09/02 06:50:39;;;;;;;5.93;4.07;;;17.20;72.20;;;;;;5018495;28;20026;-83
2021/09/02 06:53:05;;;;;;;6.15;4.20;;;18.00;69.90;;;;;;5020779;28;20430;-84
2021/09/02 06:55:31;;;;;;;9.02;4.65;;;17.90;68.20;;;;;;5017046;28;20017;-84
2021/09/02 06:57:57;;;;;;;5.03;3.33;;;17.60;68.90;;;;;;5015619;28;20022;-82
2021/09/02 07:00:23;;;;;;;4.47;3.30;;;17.20;69.30;;;;;;5013918;28;20018;-82
2021/09/02 07:02:48;;;;;;;8.18;3.83;;;17.00;69.80;;;;;;5015084;28;20037;-83
2021/09/02 07:05:16;;;;;;;8.65;3.67;;;16.90;70.00;;;;;;5014849;28;20029;-82
2021/09/02 07:07:41;;;;;;;4.82;3.30;;;17.00;69.90;;;;;;5016507;28;20852;-83
2021/09/02 07:10:08;;;;;;;6.60;3.65;;;17.10;69.30;;;;;;5014069;28;20121;-82
2021/09/02 07:12:34;;;;;;;7.78;3.50;;;17.10;68.20;;;;;;5013724;28;20109;-81
2021/09/02 07:14:59;;;;;;;7.03;3.22;;;16.80;69.30;;;;;;5006661;28;20145;-82
2021/09/02 07:17:25;;;;;;;4.35;2.88;;;16.60;69.40;;;;;;5015091;28;20018;-84
2021/09/02 07:19:51;;;;;;;4.78;2.88;;;16.60;69.00;;;;;;5017293;28;20026;-82
2021/09/02 07:22:17;;;;;;;6.93;2.70;;;16.90;67.50;;;;;;5014696;28;20379;-83
2021/09/02 07:24:43;;;;;;;6.30;2.70;;;17.20;66.70;;;;;;5013242;28;20412;-82
2021/09/02 07:27:09;;;;;;;12.13;3.38;;;17.60;66.30;;;;;;5014725;28;20061;-82
2021/09/02 07:29:34;;;;;;;6.50;3.33;;;18.50;65.00;;;;;;5013186;28;20022;-83
2021/09/02 07:32:00;;;;;;;4.90;2.50;;;19.50;60.80;;;;;;5014684;28;20030;-84
2021/09/02 07:34:26;;;;;;;4.65;2.95;;;20.20;59.10;;;;;;5014441;28;20021;-83
2021/09/02 07:36:52;;;;;;;4.57;2.50;;;21.00;55.50;;;;;;5014515;28;20041;-83
2021/09/02 07:39:18;;;;;;;8.15;3.58;;;21.60;53.40;;;;;;5014274;28;20474;-84
2021/09/02 07:41:44;;;;;;;7.85;5.13;;;22.40;53.10;;;;;;5013132;28;20026;-83
2021/09/02 07:44:09;;;;;;;6.20;2.75;;;23.10;50.90;;;;;;5013831;28;20050;-82
2021/09/02 07:46:35;;;;;;;4.80;2.80;;;23.80;48.70;;;;;;5014008;28;20041;-84
2021/09/02 07:49:01;;;;;;;3.70;2.45;;;25.00;47.10;;;;;;5014218;28;20100;-84
2021/09/02 07:51:28;;;;;;;5.25;2.55;;;25.70;43.80;;;;;;5014179;28;20026;-86
2021/09/02 07:53:54;;;;;;;5.70;2.50;;;25.80;43.30;;;;;;5012940;28;20028;-83
2021/09/02 07:56:20;;;;;;;3.72;1.85;;;25.70;42.30;;;;;;5014161;28;20025;-83
2021/09/02 07:58:46;;;;;;;4.85;2.53;;;25.80;41.20;;;;;;5013990;28;20094;-84
2021/09/02 08:01:13;;;;;;;6.43;2.47;;;25.10;42.90;;;;;;5014297;28;20022;-82
2021/09/02 08:03:40;;;;;;;5.03;2.40;;;23.80;44.30;;;;;;5014189;28;20022;-82
2021/09/02 08:06:06;;;;;;;6.93;2.50;;;22.50;46.50;;;;;;5013475;28;20467;-83
2021/09/02 08:08:32;;;;;;;5.45;2.80;;;21.80;48.80;;;;;;5014451;28;20128;-81
2021/09/02 08:10:59;;;;;;;5.50;2.90;;;21.40;49.90;;;;;;5014467;28;20057;-84
2021/09/02 08:13:25;;;;;;;7.68;3.30;;;20.90;51.30;;;;;;5011827;28;20030;-82
2021/09/02 08:15:51;;;;;;;8.10;3.33;;;20.40;51.30;;;;;;5015856;28;20018;-83
2021/09/02 08:18:17;;;;;;;7.28;2.90;;;19.80;52.00;;;;;;5014048;28;20086;-83
2021/09/02 08:20:43;;;;;;;7.93;5.28;;;19.30;53.90;;;;;;5013742;28;20026;-83
2021/09/02 08:23:09;;;;;;;6.25;3.95;;;18.90;55.80;;;;;;5012476;28;20082;-82
2021/09/02 08:25:35;;;;;;;5.70;3.30;;;18.50;57.00;;;;;;5013131;28;20069;-82
2021/09/02 08:28:01;;;;;;;5.97;3.10;;;18.10;59.50;;;;;;5021918;28;20018;-82
2021/09/02 08:30:28;;;;;;;5.93;3.00;;;17.50;60.80;;;;;;5026571;28;20034;-83
2021/09/02 08:32:54;;;;;;;;;;;17.00;62.30;;;;;;5019910;28;20090;-81
2021/09/02 08:35:26;;;;;;;4.28;2.83;;;16.50;62.60;;;;;;5014826;28;19906;-81
2021/09/02 08:37:56;;;;;;;4.55;2.70;;;16.00;65.00;;;;;;5013234;28;20125;-83
2021/09/02 08:40:28;;;;;;;6.28;3.05;;;15.60;67.00;;;;;;5013485;28;20022;-82
2021/09/02 08:42:54;;;;;;;8.00;3.42;;;15.50;68.10;;;;;;5013311;28;20014;-83
2021/09/02 08:45:22;;;;;;;6.30;3.45;;;15.50;69.60;;;;;;5011448;28;20414;-81
2021/09/02 08:47:49;;;;;;;4.63;3.20;;;15.60;70.10;;;;;;5011597;28;20022;-83
2021/09/02 08:50:17;;;;;;;4.93;2.67;;;16.00;68.30;;;;;;5013023;28;20113;-82
2021/09/02 08:52:43;;;;;;;6.50;2.97;;;17.70;63.90;;;;;;5011598;28;20018;-83
2021/09/02 08:55:10;;;;;;;5.10;3.20;;;19.50;59.30;;;;;;5013071;28;20426;-81
2021/09/02 08:57:35;;;;;;;10.48;3.08;;;20.30;56.20;;;;;;5013870;28;20490;-83
2021/09/02 09:00:02;;;;;;;4.25;2.85;;;20.40;54.80;;;;;;5013029;28;20026;-83
2021/09/02 09:02:31;;;;;;;7.20;3.27;;;20.00;54.50;;;;;;5013513;28;20030;-82
2021/09/02 09:05:06;;;;;;;8.00;3.30;;;19.40;56.70;;;;;;5013187;28;20422;-83
2021/09/02 09:07:34;;;;;;;4.75;2.75;;;18.90;58.10;;;;;;5014148;28;20033;-82
2021/09/02 09:10:00;;;;;;;7.40;3.67;;;18.40;59.00;;;;;;5010507;28;20365;-83
2021/09/02 09:12:39;;;;;;;7.83;3.37;;;17.90;61.50;;;;;;5011666;28;20025;-82
2021/09/02 09:15:07;;;;;;;8.02;3.92;;;17.20;65.20;;;;;;5011591;28;20470;-82
2021/09/02 09:17:34;;;;;;;7.15;3.63;;;16.60;68.00;;;;;;5011242;28;20026;-83
2021/09/02 09:20:00;;;;;;;5.82;4.03;;;16.00;70.20;;;;;;5012490;28;20025;-82
2021/09/02 09:22:29;;;;;;;5.68;3.63;;;15.90;71.90;;;;;;5011258;28;20411;-82
2021/09/02 09:24:58;;;;;;;8.27;4.68;;;15.90;72.50;;;;;;5011818;28;20072;-81
2021/09/02 09:27:33;;;;;;;6.38;4.43;;;16.60;72.20;;;;;;5011799;28;20497;-82
2021/09/02 09:30:16;;;;;;;6.47;3.90;;;17.40;69.80;;;;;;5012732;28;20395;-82
2021/09/02 09:32:54;;;;;;;6.20;2.78;;;19.00;67.40;;;;;;5012634;28;20025;-82
2021/09/02 09:35:25;;;;;;;4.78;2.65;;;21.10;56.40;;;;;;5014151;28;20549;-84
2021/09/02 09:38:04;;;;;;;6.00;2.88;;;23.10;52.00;;;;;;5013380;28;20022;-83
2021/09/02 09:40:31;;;;;;;5.18;3.08;;;24.50;47.90;;;;;;5013985;28;20438;-82
2021/09/02 09:43:07;;;;;;;6.53;3.22;;;24.10;46.40;;;;;;5012528;28;20014;-83
2021/09/02 09:45:49;;;;;;;6.82;3.88;;;23.20;46.60;;;;;;5012125;28;20143;-83
2021/09/02 09:48:17;;;;;;;4.55;2.67;;;21.80;48.20;;;;;;5011710;28;20014;-82
2021/09/02 09:50:44;;;;;;;5.63;3.42;;;20.60;51.10;;;;;;5012248;28;20104;-82
2021/09/02 09:53:37;;;;;;;4.80;3.27;;;19.60;53.10;;;;;;5010914;28;20025;-81
2021/09/02 09:56:04;;;;;;;4.93;2.70;;;18.70;55.20;;;;;;4997821;28;20025;-83
2021/09/02 09:58:30;;;;;;;4.97;2.65;;;18.30;56.20;;;;;;5012161;28;20022;-83
2021/09/02 10:00:59;;;;;;;6.53;3.42;;;18.10;55.60;;;;;;5012547;28;20022;-82
2021/09/02 10:03:25;;;;;;;4.65;3.58;;;17.70;56.10;;;;;;5012235;28;20101;-82
2021/09/02 10:05:52;;;;;;;5.97;2.20;;;17.20;60.80;;;;;;5012478;28;20033;-80
2021/09/02 10:08:19;;;;;;;6.72;3.03;;;16.10;61.20;;;;;;5011876;28;20022;-82
2021/09/02 10:10:49;;;;;;;6.95;2.97;;;14.10;68.60;;;;;;5011136;28;20033;-84
2021/09/02 10:13:16;;;;;;;4.05;2.83;;;12.80;77.20;;;;;;5011312;28;20053;-82
2021/09/02 10:15:43;;;;;;;4.53;2.72;;;12.30;80.20;;;;;;5013558;28;20534;-83
2021/09/02 10:18:10;;;;;;;4.22;2.92;;;12.20;81.80;;;;;;5012253;28;20034;-82
2021/09/02 10:20:38;;;;;;;4.60;2.83;;;12.20;81.60;;;;;;5012015;28;20026;-83
2021/09/02 10:23:05;;;;;;;4.25;3.00;;;12.30;83.10;;;;;;5010973;28;20456;-83
2021/09/02 10:25:34;;;;;;;4.78;3.53;;;12.60;85.60;;;;;;5011353;28;20036;-84
2021/09/02 10:28:17;;;;;;;2.97;2.38;;;13.20;86.30;;;;;;5000011;28;20017;-82
2021/09/02 10:30:48;;;;;;;9.27;3.58;;;13.40;84.00;;;;;;5012885;28;20084;-83
2021/09/02 10:33:56;;;;;;;3.85;3.15;;;13.70;85.80;;;;;;5013984;28;20022;-83
2021/09/02 10:36:25;;;;;;;7.45;4.15;;;14.30;85.90;;;;;;5019713;28;20094;-84
2021/09/02 10:38:54;;;;;;;6.57;4.03;;;15.00;88.20;;;;;;5018531;28;20026;-82
2021/09/02 10:41:40;;;;;;;6.68;3.97;;;15.30;85.60;;;;;;5015991;28;20072;-82
2021/09/02 10:44:13;;;;;;;8.80;4.20;;;15.50;83.40;;;;;;5015014;28;20061;-81
2021/09/02 10:46:53;;;;;;;5.60;3.92;;;15.50;79.70;;;;;;5014705;28;20041;-82
2021/09/02 10:49:20;;;;;;;5.63;4.10;;;15.40;79.90;;;;;;5016460;28;20411;-82
2021/09/02 10:51:49;;;;;;;6.65;4.10;;;15.20;79.30;;;;;;5015578;28;20022;-84
2021/09/02 10:54:19;;;;;;;10.73;5.05;;;15.10;79.50;;;;;;5015269;28;20048;-82
2021/09/02 10:57:09;;;;;;;7.32;4.95;;;15.10;79.50;;;;;;5015260;28;20037;-83
2021/09/02 10:59:54;;;;;;;9.52;4.80;;;15.10;80.90;;;;;;5016590;28;20038;-83
2021/09/02 11:02:23;;;;;;;6.80;4.47;;;15.30;83.10;;;;;;5018242;28;20447;-83
2021/09/02 11:05:06;;;;;;;8.48;4.13;;;15.40;82.10;;;;;;5015965;28;20029;-83
2021/09/02 11:07:47;;;;;;;8.25;3.92;;;15.50;78.00;;;;;;4996479;28;20038;-82
2021/09/02 11:10:14;;;;;;;4.05;2.53;;;15.40;76.50;;;;;;5008730;28;20061;-83
2021/09/02 11:12:41;;;;;;;4.68;2.80;;;15.50;74.00;;;;;;5014475;28;20120;-83
2021/09/02 11:15:08;;;;;;;5.22;2.97;;;15.40;73.80;;;;;;5015315;28;20026;-83
2021/09/02 11:17:34;;;;;;;4.88;2.75;;;15.30;71.40;;;;;;5015048;28;20037;-82
2021/09/02 11:20:00;;;;;;;3.47;2.55;;;15.20;71.60;;;;;;5015489;28;20026;-83
2021/09/02 11:22:25;;;;;;;4.18;2.58;;;15.10;70.30;;;;;;5016452;28;20030;-83
2021/09/02 11:24:53;;;;;;;3.92;2.75;;;15.10;69.60;;;;;;5016406;28;20061;-81
2021/09/02 11:27:33;;;;;;;3.13;2.20;;;15.20;67.10;;;;;;5014865;28;20038;-82
2021/09/02 11:30:15;;;;;;;4.72;2.40;;;15.20;67.10;;;;;;5014416;28;20034;-83
2021/09/02 11:32:42;;;;;;;3.72;2.30;;;15.20;65.70;;;;;;5013042;28;20026;-84
2021/09/02 11:35:09;;;;;;;3.23;2.23;;;15.10;65.50;;;;;;5014318;28;20502;-83
2021/09/02 11:37:44;;;;;;;3.60;2.47;;;15.00;65.80;;;;;;5014341;28;20518;-81
2021/09/02 11:40:31;;;;;;;5.00;2.78;;;14.90;66.50;;;;;;5014242;28;20034;-83
2021/09/02 11:42:58;;;;;;;4.32;2.85;;;14.90;67.10;;;;;;5013736;28;20026;-83
2021/09/02 11:45:28;;;;;;;4.30;2.78;;;14.80;66.20;;;;;;5014155;28;20037;-83
2021/09/02 11:47:54;;;;;;;4.97;3.42;;;14.80;68.30;;;;;;5012291;28;20040;-83
2021/09/02 11:50:23;;;;;;;3.42;1.70;;;14.80;68.90;;;;;;5015403;28;20028;-81
2021/09/02 11:52:51;;;;;;;5.55;2.08;;;15.00;65.80;;;;;;5018190;28;20041;-81
2021/09/02 11:55:32;;;;;;;5.22;2.03;;;15.00;63.70;;;;;;5016416;28;20037;-81
2021/09/02 11:58:04;;;;;;;2.47;1.58;;;14.90;64.00;;;;;;5013038;28;20026;-81
2021/09/02 12:00:31;;;;;;;8.73;2.28;;;14.90;64.50;;;;;;5014234;28;20026;-84
2021/09/02 12:02:59;;;;;;;3.97;2.17;;;14.90;64.70;;;;;;5014425;28;20040;-82
2021/09/02 12:05:36;;;;;;;11.18;2.35;;;15.00;65.40;;;;;;5013590;28;20073;-82
2021/09/02 12:08:05;;;;;;;3.35;2.05;;;15.10;65.70;;;;;;5003297;28;20052;-83
2021/09/02 12:10:31;;;;;;;5.10;2.70;;;15.10;66.80;;;;;;5013951;28;20313;-81
2021/09/02 12:12:58;;;;;;;4.28;2.67;;;15.20;67.70;;;;;;5014016;28;20072;-83
2021/09/02 12:15:28;;;;;;;5.65;2.40;;;15.30;68.10;;;;;;5014413;28;20186;-82
2021/09/02 12:18:05;;;;;;;4.63;2.28;;;15.30;68.30;;;;;;5014934;28;20022;-81
2021/09/02 12:20:31;;;;;;;3.92;2.17;;;15.30;68.80;;;;;;5014297;28;20101;-82
2021/09/02 12:22:57;;;;;;;3.38;1.90;;;15.30;67.70;;;;;;5012584;28;20065;-82
2021/09/02 12:25:23;;;;;;;5.93;2.33;;;15.40;67.50;;;;;;5012457;28;20440;-81
2021/09/02 12:27:50;;;;;;;10.80;3.60;;;15.40;66.80;;;;;;5014628;28;20022;-83
2021/09/02 12:30:37;;;;;;;3.17;1.90;;;15.40;66.40;;;;;;5014236;28;20026;-82
2021/09/02 12:33:14;;;;;;;5.18;2.08;;;15.30;65.80;;;;;;5013431;28;20022;-84
2021/09/02 12:35:41;;;;;;;5.68;2.42;;;15.30;65.60;;;;;;5013856;28;20129;-83
2021/09/02 12:38:37;;;;;;;3.90;2.50;;;15.30;65.90;;;;;;5012662;28;20022;-82
2021/09/02 12:41:14;;;;;;;7.03;2.85;;;15.30;66.60;;;;;;5017667;28;20021;-83
2021/09/02 12:43:58;;;;;;;4.22;2.60;;;15.30;66.10;;;;;;5025091;28;20042;-81
2021/09/02 12:46:24;;;;;;;3.40;2.28;;;15.30;66.70;;;;;;5016120;28;20065;-82
2021/09/02 12:48:50;;;;;;;4.13;2.40;;;15.30;67.20;;;;;;5013707;28;20022;-81